Time;durP1;ratioP1;P1;durP2;ratioP2;P2;SDS_P1;SDS_P2;PMS_P1;PMS_P2;Temp;Humidity;BMP_temperature;BMP_pressure;BME280_temperature;BME280_humidity;BME280_pressure;Samples;Min_cycle;Max_cycle;Signal;HPM_P1;HPM_P2
2021/11/20 00:01:49;;;;;;;;;;;;;;;;;;5051169;28;19920;-55
2021/11/20 00:04:15;;;;;;;;;;;;;;;;;;5062977;28;19919;-54
2021/11/20 00:06:41;;;;;;;;;;;;;;;;;;5060486;28;19986;-54
2021/11/20 00:09:07;;;;;;;;;;;;;;;;;;5063527;28;19956;-54
2021/11/20 00:11:33;;;;;;;;;;;;;;;;;;5065820;28;19930;-53
2021/11/20 00:13:59;;;;;;;;;;;;;;;;;;5067107;28;20283;-53
2021/11/20 00:16:25;;;;;;;;;;;;;;;;;;5063918;28;19938;-53
2021/11/20 00:18:51;;;;;;;;;;;;;;;;;;5047577;28;19909;-54
2021/11/20 00:21:17;;;;;;;;;;;;;;;;;;5047712;28;19909;-53
2021/11/20 00:23:43;;;;;;;;;;;;;;;;;;5046771;28;20019;-53
2021/11/20 00:26:09;;;;;;;;;;;;;;;;;;5046705;28;20461;-54
2021/11/20 00:28:42;;;;;;;;;;;;;;;;;;5046539;28;20399;-55
2021/11/20 00:31:09;;;;;;;;;;;;;;;;;;5045866;28;20406;-51
2021/11/20 00:33:36;;;;;;;;;;;;;;;;;;5051581;28;19920;-54
2021/11/20 00:36:02;;;;;;;;;;;;;;;;;;5066963;28;19931;-54
2021/11/20 00:38:29;;;;;;;;;;;;;;;;;;5047072;28;19916;-55
2021/11/20 00:40:56;;;;;;;;;;;;;;;;;;5045616;28;20475;-54
2021/11/20 00:43:22;;;;;;;;;;;;;;;;;;5046773;28;19963;-55
2021/11/20 00:45:49;;;;;;;;;;;;;;;;;;5047066;28;19956;-55
2021/11/20 00:48:14;;;;;;;;;;;;;;;;;;5045042;28;20311;-50
2021/11/20 00:50:40;;;;;;;;;;;;;;;;;;5046456;28;19913;-53
2021/11/20 00:53:06;;;;;;;;;;;;;;;;;;5046815;28;19909;-55
2021/11/20 00:55:32;;;;;;;;;;;;;;;;;;5046540;28;20351;-56
2021/11/20 00:57:58;;;;;;;;;;;;;;;;;;5046062;28;20396;-54
2021/11/20 01:00:24;;;;;;;;;;;;;;;;;;5061696;28;19952;-54
2021/11/20 01:02:50;;;;;;;;;;;;;;;;;;5047047;28;19917;-52
2021/11/20 01:05:16;;;;;;;;;;;;;;;;;;5046157;28;19909;-54
2021/11/20 01:07:43;;;;;;;;;;;;;;;;;;5045847;28;19924;-55
2021/11/20 01:10:09;;;;;;;;;;;;;;;;;;5046499;28;20423;-53
2021/11/20 01:12:36;;;;;;;;;;;;;;;;;;5044655;28;20015;-53
2021/11/20 01:15:02;;;;;;;;;;;;;;;;;;5046229;28;20375;-52
2021/11/20 01:17:28;;;;;;;;;;;;;;;;;;5045803;28;19947;-54
2021/11/20 01:19:54;;;;;;;;;;;;;;;;;;5045908;28;19920;-55
2021/11/20 01:22:19;;;;;;;;;;;;;;;;;;5046451;28;20391;-54
2021/11/20 01:24:46;;;;;;;;;;;;;;;;;;5046593;28;19908;-55
2021/11/20 01:27:12;;;;;;;;;;;;;;;;;;5045542;28;20086;-54
2021/11/20 01:29:37;;;;;;;;;;;;;;;;;;5045747;28;20012;-54
2021/11/20 01:32:03;;;;;;;;;;;;;;;;;;5045997;28;19945;-54
2021/11/20 01:34:29;;;;;;;;;;;;;;;;;;5045323;28;20023;-53
2021/11/20 01:36:55;;;;;;;;;;;;;;;;;;5056187;28;19923;-55
2021/11/20 01:39:25;;;;;;;;;;;;;;;;;;5052240;28;19917;-53
2021/11/20 01:41:51;;;;;;;;;;;;;;;;;;5050452;28;20379;-54
2021/11/20 01:44:17;;;;;;;;;;;;;;;;;;5064868;28;19915;-54
2021/11/20 01:46:43;;;;;;;;;;;;;;;;;;5064841;28;19909;-54
2021/11/20 01:49:09;;;;;;;;;;;;;;;;;;5049390;28;19917;-55
2021/11/20 01:51:37;;;;;;;;;;;;;;;;;;5045210;28;19920;-54
2021/11/20 01:54:04;;;;;;;;;;;;;;;;;;5045487;28;19908;-54
2021/11/20 01:56:29;;;;;;;;;;;;;;;;;;5045047;28;20008;-54
2021/11/20 01:58:55;;;;;;;;;;;;;;;;;;5050182;28;20021;-55
2021/11/20 02:01:21;;;;;;;;;;;;;;;;;;5045729;28;19917;-54
2021/11/20 02:03:47;;;;;;;;;;;;;;;;;;5045195;28;19913;-55
2021/11/20 02:06:14;;;;;;;;;;;;;;;;;;5045056;28;20003;-54
2021/11/20 02:08:40;;;;;;;;;;;;;;;;;;5044434;28;20019;-55
2021/11/20 02:11:06;;;;;;;;;;;;;;;;;;5045183;28;20012;-55
2021/11/20 02:13:32;;;;;;;;;;;;;;;;;;5044739;28;20343;-55
2021/11/20 02:16:00;;;;;;;;;;;;;;;;;;5055479;28;19913;-55
2021/11/20 02:18:26;;;;;;;;;;;;;;;;;;5061479;28;19977;-56
2021/11/20 02:20:52;;;;;;;;;;;;;;;;;;5066269;28;19909;-56
2021/11/20 02:23:18;;;;;;;;;;;;;;;;;;5065694;28;19912;-56
2021/11/20 02:25:44;;;;;;;;;;;;;;;;;;5045408;28;20511;-56
2021/11/20 02:28:10;;;;;;;;;;;;;;;;;;5046632;28;19939;-56
2021/11/20 02:30:36;;;;;;;;;;;;;;;;;;5046899;28;19995;-55
2021/11/20 02:33:03;;;;;;;;;;;;;;;;;;5046973;28;19909;-55
2021/11/20 02:35:29;;;;;;;;;;;;;;;;;;5048441;28;19943;-55
2021/11/20 02:37:55;;;;;;;;;;;;;;;;;;5066738;28;19916;-55
2021/11/20 02:40:21;;;;;;;;;;;;;;;;;;5067233;28;19915;-54
2021/11/20 02:42:47;;;;;;;;;;;;;;;;;;5065942;28;19916;-55
2021/11/20 02:45:13;;;;;;;;;;;;;;;;;;5065792;28;19908;-54
2021/11/20 02:47:39;;;;;;;;;;;;;;;;;;5046075;28;19917;-56
2021/11/20 02:50:05;;;;;;;;;;;;;;;;;;5046693;28;19912;-55
2021/11/20 02:52:30;;;;;;;;;;;;;;;;;;5045166;28;19916;-55
2021/11/20 02:54:56;;;;;;;;;;;;;;;;;;5046661;28;20035;-56
2021/11/20 02:57:22;;;;;;;;;;;;;;;;;;5064253;28;19912;-56
2021/11/20 02:59:48;;;;;;;;;;;;;;;;;;5066417;28;19992;-54
2021/11/20 03:02:14;;;;;;;;;;;;;;;;;;5066741;28;19916;-55
2021/11/20 03:04:40;;;;;;;;;;;;;;;;;;5049057;28;19960;-56
2021/11/20 03:07:06;;;;;;;;;;;;;;;;;;5047019;28;19921;-56
2021/11/20 03:09:32;;;;;;;;;;;;;;;;;;5046153;28;19908;-56
2021/11/20 03:11:58;;;;;;;;;;;;;;;;;;5046513;28;19924;-56
2021/11/20 03:14:25;;;;;;;;;;;;;;;;;;5046602;28;20360;-56
2021/11/20 03:16:51;;;;;;;;;;;;;;;;;;5046772;28;19955;-56
2021/11/20 03:19:16;;;;;;;;;;;;;;;;;;5045711;28;19952;-56
2021/11/20 03:21:42;;;;;;;;;;;;;;;;;;5046131;28;19909;-56
2021/11/20 03:24:08;;;;;;;;;;;;;;;;;;5046315;28;19990;-56
2021/11/20 03:26:34;;;;;;;;;;;;;;;;;;5046249;28;19909;-56
2021/11/20 03:29:00;;;;;;;;;;;;;;;;;;5045509;28;20019;-55
2021/11/20 03:31:26;;;;;;;;;;;;;;;;;;5046204;28;19936;-56
2021/11/20 03:33:52;;;;;;;;;;;;;;;;;;5046925;28;19905;-53
2021/11/20 03:36:18;;;;;;;;;;;;;;;;;;5046418;28;19962;-55
2021/11/20 03:38:45;;;;;;;;;;;;;;;;;;5046251;28;20662;-55
2021/11/20 03:41:11;;;;;;;;;;;;;;;;;;5052432;28;20410;-56
2021/11/20 03:43:37;;;;;;;;;;;;;;;;;;5065834;28;19920;-56
2021/11/20 03:46:03;;;;;;;;;;;;;;;;;;5066016;28;19948;-56
2021/11/20 03:48:29;;;;;;;;;;;;;;;;;;5065941;28;20023;-56
2021/11/20 03:50:55;;;;;;;;;;;;;;;;;;5066177;28;19978;-56
2021/11/20 03:53:21;;;;;;;;;;;;;;;;;;5066832;28;19908;-56
2021/11/20 03:55:47;;;;;;;;;;;;;;;;;;5060235;28;19951;-56
2021/11/20 03:58:13;;;;;;;;;;;;;;;;;;5066257;28;19909;-56
2021/11/20 04:00:39;;;;;;;;;;;;;;;;;;5066275;28;19912;-55
2021/11/20 04:03:04;;;;;;;;;;;;;;;;;;5065004;28;19917;-56
2021/11/20 04:05:33;;;;;;;;;;;;;;;;;;5065990;28;20007;-56
2021/11/20 04:08:00;;;;;;;;;;;;;;;;;;5066221;28;19927;-55
2021/11/20 04:10:25;;;;;;;;;;;;;;;;;;5064574;28;19917;-55
2021/11/20 04:12:51;;;;;;;;;;;;;;;;;;5066637;28;20015;-56
2021/11/20 04:15:17;;;;;;;;;;;;;;;;;;5066286;28;19908;-56
2021/11/20 04:17:43;;;;;;;;;;;;;;;;;;5065611;28;20063;-56
2021/11/20 04:20:09;;;;;;;;;;;;;;;;;;5066004;28;19916;-56
2021/11/20 04:22:35;;;;;;;;;;;;;;;;;;5066752;28;19912;-55
2021/11/20 04:25:01;;;;;;;;;;;;;;;;;;5049592;28;19982;-54
2021/11/20 04:27:27;;;;;;;;;;;;;;;;;;5049612;28;19916;-55
2021/11/20 04:29:53;;;;;;;;;;;;;;;;;;5050073;28;19988;-55
2021/11/20 04:32:19;;;;;;;;;;;;;;;;;;5049614;28;19912;-56
2021/11/20 04:34:45;;;;;;;;;;;;;;;;;;5049429;28;19913;-56
2021/11/20 04:37:11;;;;;;;;;;;;;;;;;;5049458;28;19919;-55
2021/11/20 04:39:37;;;;;;;;;;;;;;;;;;5057471;28;19913;-56
2021/11/20 04:42:03;;;;;;;;;;;;;;;;;;5069269;28;19924;-55
2021/11/20 04:44:29;;;;;;;;;;;;;;;;;;5069037;28;19917;-56
2021/11/20 04:46:55;;;;;;;;;;;;;;;;;;5068446;28;19909;-55
2021/11/20 04:49:21;;;;;;;;;;;;;;;;;;5069317;28;20362;-56
2021/11/20 04:51:47;;;;;;;;;;;;;;;;;;5069120;28;19908;-56
2021/11/20 04:54:13;;;;;;;;;;;;;;;;;;5050720;28;19912;-56
2021/11/20 04:56:39;;;;;;;;;;;;;;;;;;5066194;28;20731;-56
2021/11/20 04:59:06;;;;;;;;;;;;;;;;;;5069006;28;19915;-56
2021/11/20 05:01:32;;;;;;;;;;;;;;;;;;5068423;28;19915;-56
2021/11/20 05:04:00;;;;;;;;;;;;;;;;;;5066514;28;19913;-56
2021/11/20 05:06:26;;;;;;;;;;;;;;;;;;5067966;28;19912;-56
2021/11/20 05:08:52;;;;;;;;;;;;;;;;;;5048999;28;20371;-56
2021/11/20 05:11:18;;;;;;;;;;;;;;;;;;5048677;28;19921;-56
2021/11/20 05:13:46;;;;;;;;;;;;;;;;;;5048188;28;20204;-56
2021/11/20 05:16:12;;;;;;;;;;;;;;;;;;5048656;28;20437;-57
2021/11/20 05:18:38;;;;;;;;;;;;;;;;;;5048120;28;19999;-56
2021/11/20 05:21:03;;;;;;;;;;;;;;;;;;5050239;28;19943;-55
2021/11/20 05:23:29;;;;;;;;;;;;;;;;;;5068154;28;19920;-55
2021/11/20 05:25:55;;;;;;;;;;;;;;;;;;5068492;28;19913;-56
2021/11/20 05:28:21;;;;;;;;;;;;;;;;;;5068826;28;19963;-56
2021/11/20 05:30:47;;;;;;;;;;;;;;;;;;5068358;28;19917;-56
2021/11/20 05:33:13;;;;;;;;;;;;;;;;;;5067977;28;19911;-55
2021/11/20 05:35:39;;;;;;;;;;;;;;;;;;5061467;28;19959;-55
2021/11/20 05:38:05;;;;;;;;;;;;;;;;;;5047671;28;19912;-55
2021/11/20 05:40:31;;;;;;;;;;;;;;;;;;5048140;28;19924;-55
2021/11/20 05:42:57;;;;;;;;;;;;;;;;;;5048161;28;20376;-56
2021/11/20 05:45:23;;;;;;;;;;;;;;;;;;5048360;28;19952;-56
2021/11/20 05:47:49;;;;;;;;;;;;;;;;;;5047346;28;19913;-56
2021/11/20 05:50:17;;;;;;;;;;;;;;;;;;5056676;28;19917;-55
2021/11/20 05:52:43;;;;;;;;;;;;;;;;;;5064826;28;19913;-56
2021/11/20 05:55:09;;;;;;;;;;;;;;;;;;5047958;28;19913;-55
2021/11/20 05:57:35;;;;;;;;;;;;;;;;;;5047576;28;19913;-56
2021/11/20 06:00:01;;;;;;;;;;;;;;;;;;5047734;28;19936;-56
2021/11/20 06:02:27;;;;;;;;;;;;;;;;;;5046818;28;19920;-56
2021/11/20 06:04:53;;;;;;;;;;;;;;;;;;5048450;28;19954;-56
2021/11/20 06:07:20;;;;;;;;;;;;;;;;;;5047823;28;19920;-56
2021/11/20 06:09:46;;;;;;;;;;;;;;;;;;5048108;28;19913;-55
2021/11/20 06:12:12;;;;;;;;;;;;;;;;;;5067437;28;19920;-56
2021/11/20 06:14:38;;;;;;;;;;;;;;;;;;5067478;28;19908;-55
2021/11/20 06:17:04;;;;;;;;;;;;;;;;;;5067260;28;20019;-56
2021/11/20 06:19:30;;;;;;;;;;;;;;;;;;5047123;28;19917;-55
2021/11/20 06:21:56;;;;;;;;;;;;;;;;;;5047476;28;19960;-56
2021/11/20 06:24:22;;;;;;;;;;;;;;;;;;5047865;28;19920;-55
2021/11/20 06:26:48;;;;;;;;;;;;;;;;;;5047356;28;19909;-55
2021/11/20 06:29:14;;;;;;;;;;;;;;;;;;5047991;28;19917;-55
2021/11/20 06:31:40;;;;;;;;;;;;;;;;;;5046602;28;19920;-55
2021/11/20 06:34:06;;;;;;;;;;;;;;;;;;5047203;28;19909;-55
2021/11/20 06:36:32;;;;;;;;;;;;;;;;;;5046902;28;19919;-55
2021/11/20 06:38:58;;;;;;;;;;;;;;;;;;5059441;28;19947;-55
2021/11/20 06:41:24;;;;;;;;;;;;;;;;;;5059562;28;19974;-55
2021/11/20 06:43:50;;;;;;;;;;;;;;;;;;5047416;28;20335;-55
2021/11/20 06:46:16;;;;;;;;;;;;;;;;;;5046304;28;19963;-56
2021/11/20 06:48:42;;;;;;;;;;;;;;;;;;5046379;28;19913;-56
2021/11/20 06:51:08;;;;;;;;;;;;;;;;;;5049995;28;19933;-56
2021/11/20 06:53:34;;;;;;;;;;;;;;;;;;5066719;28;19995;-56
2021/11/20 06:56:00;;;;;;;;;;;;;;;;;;5062755;28;19968;-56
2021/11/20 07:01:02;;;;;;;;;;;;;;;;;;5065151;28;19995;-56
2021/11/20 07:03:28;;;;;;;;;;;;;;;;;;5066447;28;20011;-56
2021/11/20 07:05:54;;;;;;;;;;;;;;;;;;5067352;28;19923;-55
2021/11/20 07:08:20;;;;;;;;;;;;;;;;;;5067318;28;19931;-56
2021/11/20 07:10:45;;;;;;;;;;;;;;;;;;5065127;28;20023;-55
2021/11/20 07:13:12;;;;;;;;;;;;;;;;;;5046746;28;19920;-55
2021/11/20 07:15:38;;;;;;;;;;;;;;;;;;5047156;28;19916;-50
2021/11/20 07:18:04;;;;;;;;;;;;;;;;;;5046343;28;20356;-49
2021/11/20 07:20:30;;;;;;;;;;;;;;;;;;5046279;28;19927;-48
2021/11/20 07:22:56;;;;;;;;;;;;;;;;;;5052886;28;19917;-48
2021/11/20 07:25:22;;;;;;;;;;;;;;;;;;5057685;28;20006;-48
2021/11/20 07:27:48;;;;;;;;;;;;;;;;;;5067490;28;19994;-51
2021/11/20 07:30:14;;;;;;;;;;;;;;;;;;5073170;28;19969;-48
2021/11/20 07:32:40;;;;;;;;;;;;;;;;;;5049904;28;19916;-48
2021/11/20 07:35:06;;;;;;;;;;;;;;;;;;5053861;28;19912;-49
2021/11/20 07:37:31;;;;;;;;;;;;;;;;;;5066000;28;19923;-48
2021/11/20 07:39:57;;;;;;;;;;;;;;;;;;5062502;28;19995;-49
2021/11/20 07:42:23;;;;;;;;;;;;;;;;;;5049809;28;19922;-49
2021/11/20 07:44:49;;;;;;;;;;;;;;;;;;5062425;28;19912;-48
2021/11/20 07:47:15;;;;;;;;;;;;;;;;;;5061244;28;19950;-47
2021/11/20 07:49:43;;;;;;;;;;;;;;;;;;5059587;28;19924;-48
2021/11/20 07:52:09;;;;;;;;;;;;;;;;;;5046252;28;19913;-49
2021/11/20 07:54:35;;;;;;;;;;;;;;;;;;5047000;28;20023;-48
2021/11/20 07:57:02;;;;;;;;;;;;;;;;;;5056989;28;20043;-48
2021/11/20 07:59:28;;;;;;;;;;;;;;;;;;5051340;28;19916;-49
2021/11/20 08:01:54;;;;;;;;;;;;;;;;;;5061268;28;19942;-50
2021/11/20 08:04:20;;;;;;;;;;;;;;;;;;5063512;28;19909;-50
2021/11/20 08:06:46;;;;;;;;;;;;;;;;;;5050139;28;20461;-47
2021/11/20 08:09:12;;;;;;;;;;;;;;;;;;5066304;28;19908;-50
2021/11/20 08:11:38;;;;;;;;;;;;;;;;;;5068277;28;19927;-48
2021/11/20 08:14:04;;;;;;;;;;;;;;;;;;5068592;28;19916;-49
2021/11/20 08:16:30;;;;;;;;;;;;;;;;;;5069461;28;19915;-48
2021/11/20 08:18:56;;;;;;;;;;;;;;;;;;5069556;28;19978;-49
2021/11/20 08:21:22;;;;;;;;;;;;;;;;;;5069164;28;19913;-47
2021/11/20 08:23:50;;;;;;;;;;;;;;;;;;5058637;28;20015;-48
2021/11/20 08:26:16;;;;;;;;;;;;;;;;;;5055323;28;19913;-49
2021/11/20 08:28:42;;;;;;;;;;;;;;;;;;5053217;28;19999;-50
2021/11/20 08:31:08;;;;;;;;;;;;;;;;;;5051923;28;19970;-49
2021/11/20 08:33:34;;;;;;;;;;;;;;;;;;5063992;28;19916;-49
2021/11/20 08:36:00;;;;;;;;;;;;;;;;;;5059885;28;20427;-48
2021/11/20 08:38:26;;;;;;;;;;;;;;;;;;5078772;28;19928;-49
2021/11/20 08:40:52;;;;;;;;;;;;;;;;;;5059403;28;20410;-48
2021/11/20 08:43:18;;;;;;;;;;;;;;;;;;5068676;28;20007;-51
2021/11/20 08:45:44;;;;;;;;;;;;;;;;;;5068434;28;20403;-49
2021/11/20 08:48:11;;;;;;;;;;;;;;;;;;5056926;28;19950;-49
2021/11/20 08:50:37;;;;;;;;;;;;;;;;;;5050197;28;19912;-49
2021/11/20 08:53:03;;;;;;;;;;;;;;;;;;5054901;28;19919;-50
2021/11/20 08:55:30;;;;;;;;;;;;;;;;;;5068383;28;19924;-50
2021/11/20 08:57:56;;;;;;;;;;;;;;;;;;5068480;28;20356;-50
2021/11/20 09:00:21;;;;;;;;;;;;;;;;;;5063196;28;19912;-47
2021/11/20 09:02:47;;;;;;;;;;;;;;;;;;5048312;28;20390;-49
2021/11/20 09:05:13;;;;;;;;;;;;;;;;;;5047965;28;19913;-48
2021/11/20 09:07:39;;;;;;;;;;;;;;;;;;5048572;28;19921;-48
2021/11/20 09:10:05;;;;;;;;;;;;;;;;;;5057886;28;19912;-50
2021/11/20 09:12:31;;;;;;;;;;;;;;;;;;5069251;28;19920;-49
2021/11/20 09:14:57;;;;;;;;;;;;;;;;;;5056948;28;20007;-49
2021/11/20 09:17:23;;;;;;;;;;;;;;;;;;5060479;28;19938;-48
2021/11/20 09:19:49;;;;;;;;;;;;;;;;;;5055849;28;19920;-50
2021/11/20 09:22:15;;;;;;;;;;;;;;;;;;5067301;28;19966;-48
2021/11/20 09:24:41;;;;;;;;;;;;;;;;;;5068282;28;19994;-50
2021/11/20 09:27:07;;;;;;;;;;;;;;;;;;5068895;28;20003;-50
2021/11/20 09:29:33;;;;;;;;;;;;;;;;;;5067812;28;19943;-47
2021/11/20 09:31:59;;;;;;;;;;;;;;;;;;5068524;28;20738;-48
2021/11/20 09:34:25;;;;;;;;;;;;;;;;;;5068206;28;19909;-50
2021/11/20 09:36:51;;;;;;;;;;;;;;;;;;5068964;28;20481;-50
2021/11/20 09:39:17;;;;;;;;;;;;;;;;;;5067979;28;19999;-50
2021/11/20 09:41:43;;;;;;;;;;;;;;;;;;5067773;28;19999;-48
2021/11/20 09:44:09;;;;;;;;;;;;;;;;;;5080338;28;19923;-50
2021/11/20 09:46:37;;;;;;;;;;;;;;;;;;5067358;28;19913;-50
2021/11/20 09:49:03;;;;;;;;;;;;;;;;;;5067899;28;19912;-46
2021/11/20 09:51:30;;;;;;;;;;;;;;;;;;5067724;28;19939;-49
2021/11/20 09:53:56;;;;;;;;;;;;;;;;;;5067718;28;19912;-49
2021/11/20 09:56:22;;;;;;;;;;;;;;;;;;5068203;28;19912;-50
2021/11/20 09:58:48;;;;;;;;;;;;;;;;;;5067514;28;20409;-48
2021/11/20 10:01:14;;;;;;;;;;;;;;;;;;5067747;28;19923;-48
2021/11/20 10:03:40;;;;;;;;;;;;;;;;;;5067576;28;19981;-47
2021/11/20 10:06:06;;;;;;;;;;;;;;;;;;5067798;28;19909;-46
2021/11/20 10:08:32;;;;;;;;;;;;;;;;;;5067255;28;19916;-46
2021/11/20 10:10:58;;;;;;;;;;;;;;;;;;5067475;28;19913;-46
2021/11/20 10:13:23;;;;;;;;;;;;;;;;;;5063618;28;19916;-47
2021/11/20 10:15:49;;;;;;;;;;;;;;;;;;5047093;28;20400;-46
2021/11/20 10:18:15;;;;;;;;;;;;;;;;;;5050322;28;19916;-49
2021/11/20 10:20:41;;;;;;;;;;;;;;;;;;5048333;28;19971;-50
2021/11/20 10:23:07;;;;;;;;;;;;;;;;;;5057941;28;19916;-49
2021/11/20 10:25:33;;;;;;;;;;;;;;;;;;5049378;28;20062;-45
2021/11/20 10:28:00;;;;;;;;;;;;;;;;;;5054621;28;20007;-52
2021/11/20 10:30:26;;;;;;;;;;;;;;;;;;5059219;28;19966;-50
2021/11/20 10:32:52;;;;;;;;;;;;;;;;;;5061239;28;19917;-46
2021/11/20 10:35:18;;;;;;;;;;;;;;;;;;5048295;28;19916;-47
2021/11/20 10:37:44;;;;;;;;;;;;;;;;;;5047609;28;19919;-51
2021/11/20 10:40:10;;;;;;;;;;;;;;;;;;5067146;28;19913;-46
2021/11/20 10:42:36;;;;;;;;;;;;;;;;;;5051332;28;19916;-48
2021/11/20 10:45:02;;;;;;;;;;;;;;;;;;5047642;28;19935;-46
2021/11/20 10:47:28;;;;;;;;;;;;;;;;;;5050395;28;20383;-47
2021/11/20 10:49:54;;;;;;;;;;;;;;;;;;5049856;28;19925;-49
2021/11/20 10:52:20;;;;;;;;;;;;;;;;;;5064744;28;19912;-49
2021/11/20 10:54:47;;;;;;;;;;;;;;;;;;5057234;28;20303;-46
2021/11/20 10:57:13;;;;;;;;;;;;;;;;;;5050226;28;20029;-46
2021/11/20 10:59:39;;;;;;;;;;;;;;;;;;5055441;28;20522;-47
2021/11/20 11:02:05;;;;;;;;;;;;;;;;;;5050393;28;19924;-47
2021/11/20 11:04:31;;;;;;;;;;;;;;;;;;5052930;28;19922;-47
2021/11/20 11:06:56;;;;;;;;;;;;;;;;;;5051067;28;19938;-46
2021/11/20 11:09:22;;;;;;;;;;;;;;;;;;5058580;28;19920;-48
2021/11/20 11:11:48;;;;;;;;;;;;;;;;;;5053521;28;19923;-49
2021/11/20 11:14:15;;;;;;;;;;;;;;;;;;5057437;28;20326;-47
2021/11/20 11:16:41;;;;;;;;;;;;;;;;;;5050521;28;19909;-47
2021/11/20 11:19:07;;;;;;;;;;;;;;;;;;5051213;28;20588;-48
2021/11/20 11:21:33;;;;;;;;;;;;;;;;;;5061790;28;19910;-46
2021/11/20 11:23:59;;;;;;;;;;;;;;;;;;5050037;28;20680;-47
2021/11/20 11:26:28;;;;;;;;;;;;;;;;;;5057751;28;19917;-50
2021/11/20 11:28:54;;;;;;;;;;;;;;;;;;5050380;28;19919;-49
2021/11/20 11:31:20;;;;;;;;;;;;;;;;;;5056520;28;19916;-47
2021/11/20 11:33:46;;;;;;;;;;;;;;;;;;5062532;28;19916;-47
2021/11/20 11:36:12;;;;;;;;;;;;;;;;;;5057406;28;19971;-48
2021/11/20 11:38:38;;;;;;;;;;;;;;;;;;5067714;28;20537;-50
2021/11/20 11:41:04;;;;;;;;;;;;;;;;;;5057667;28;19916;-49
2021/11/20 11:43:30;;;;;;;;;;;;;;;;;;5050131;28;19928;-50
2021/11/20 11:45:57;;;;;;;;;;;;;;;;;;5062009;28;19908;-52
2021/11/20 11:48:26;;;;;;;;;;;;;;;;;;5061140;28;19916;-50
2021/11/20 11:50:52;;;;;;;;;;;;;;;;;;5053611;28;19916;-50
2021/11/20 11:53:20;;;;;;;;;;;;;;;;;;5051159;28;20400;-48
2021/11/20 11:55:46;;;;;;;;;;;;;;;;;;5051019;28;20007;-46
2021/11/20 11:58:12;;;;;;;;;;;;;;;;;;5062346;28;20359;-49
2021/11/20 12:00:38;;;;;;;;;;;;;;;;;;5066522;28;19919;-47
2021/11/20 12:03:04;;;;;;;;;;;;;;;;;;5065218;28;19918;-48
2021/11/20 12:05:32;;;;;;;;;;;;;;;;;;5061486;28;20336;-48
2021/11/20 12:07:58;;;;;;;;;;;;;;;;;;5050749;28;20357;-46
2021/11/20 12:10:24;;;;;;;;;;;;;;;;;;5052090;28;19963;-46
2021/11/20 12:12:50;;;;;;;;;;;;;;;;;;5054579;28;19924;-47
2021/11/20 12:15:16;;;;;;;;;;;;;;;;;;5052160;28;20351;-46
2021/11/20 12:17:42;;;;;;;;;;;;;;;;;;5049048;28;19919;-50
2021/11/20 12:20:12;;;;;;;;;;;;;;;;;;5057879;28;19913;-48
2021/11/20 12:22:53;;;;;;;;;;;;;;;;;;5060450;28;19917;-49
2021/11/20 12:25:19;;;;;;;;;;;;;;;;;;5057402;28;19916;-49
2021/11/20 12:27:44;;;;;;;;;;;;;;;;;;5051906;28;19958;-49
2021/11/20 12:30:11;;;;;;;;;;;;;;;;;;5057456;28;19946;-48
2021/11/20 12:32:37;;;;;;;;;;;;;;;;;;5051896;28;19909;-50
2021/11/20 12:35:03;;;;;;;;;;;;;;;;;;5054311;28;19920;-50
2021/11/20 12:37:28;;;;;;;;;;;;;;;;;;5055004;28;19916;-50
2021/11/20 12:39:54;;;;;;;;;;;;;;;;;;5053615;28;19940;-50
2021/11/20 12:42:20;;;;;;;;;;;;;;;;;;5059521;28;19959;-51
2021/11/20 12:44:46;;;;;;;;;;;;;;;;;;5068783;28;19952;-45
2021/11/20 12:47:12;;;;;;;;;;;;;;;;;;5060675;28;19923;-48
2021/11/20 12:49:38;;;;;;;;;;;;;;;;;;5068875;28;19961;-46
2021/11/20 12:52:04;;;;;;;;;;;;;;;;;;5062103;28;19916;-48
2021/11/20 12:54:30;;;;;;;;;;;;;;;;;;5048026;28;20746;-47
2021/11/20 12:56:56;;;;;;;;;;;;;;;;;;5062180;28;19923;-46
2021/11/20 12:59:22;;;;;;;;;;;;;;;;;;5055574;28;19916;-47
2021/11/20 13:01:48;;;;;;;;;;;;;;;;;;5062206;28;19999;-46
2021/11/20 13:04:14;;;;;;;;;;;;;;;;;;5049887;28;19920;-47
2021/11/20 13:06:40;;;;;;;;;;;;;;;;;;5054649;28;20383;-47
2021/11/20 13:09:08;;;;;;;;;;;;;;;;;;5053636;28;19923;-46
2021/11/20 13:11:34;;;;;;;;;;;;;;;;;;5051172;28;19940;-46
2021/11/20 13:14:00;;;;;;;;;;;;;;;;;;5066478;28;20387;-46
2021/11/20 13:16:27;;;;;;;;;;;;;;;;;;5056524;28;20496;-46
2021/11/20 13:18:55;;;;;;;;;;;;;;;;;;5053561;28;19913;-47
2021/11/20 13:21:21;;;;;;;;;;;;;;;;;;5065719;28;19918;-46
2021/11/20 13:23:48;;;;;;;;;;;;;;;;;;5049100;28;19916;-46
2021/11/20 13:26:15;;;;;;;;;;;;;;;;;;5053004;28;19921;-49
2021/11/20 13:28:41;;;;;;;;;;;;;;;;;;5056797;28;19916;-46
2021/11/20 13:31:07;;;;;;;;;;;;;;;;;;5054709;28;20299;-46
2021/11/20 13:33:33;;;;;;;;;;;;;;;;;;5053353;28;20318;-47
2021/11/20 13:35:58;;;;;;;;;;;;;;;;;;5057578;28;19917;-46
2021/11/20 13:38:25;;;;;;;;;;;;;;;;;;5065755;28;20008;-48
2021/11/20 13:40:51;;;;;;;;;;;;;;;;;;5051993;28;19971;-49
2021/11/20 13:43:17;;;;;;;;;;;;;;;;;;5060452;28;20350;-47
2021/11/20 13:45:43;;;;;;;;;;;;;;;;;;5064248;28;19909;-49
2021/11/20 13:48:09;;;;;;;;;;;;;;;;;;5052066;28;19921;-45
2021/11/20 13:50:35;;;;;;;;;;;;;;;;;;5056953;28;20305;-48
2021/11/20 13:53:01;;;;;;;;;;;;;;;;;;5057803;28;20015;-46
2021/11/20 13:55:26;;;;;;;;;;;;;;;;;;5045238;28;19917;-45
2021/11/20 13:57:52;;;;;;;;;;;;;;;;;;5055650;28;19923;-49
2021/11/20 14:00:18;;;;;;;;;;;;;;;;;;5052447;28;19917;-46
2021/11/20 14:02:45;;;;;;;;;;;;;;;;;;5052229;28;20365;-45
2021/11/20 14:05:11;;;;;;;;;;;;;;;;;;5054012;28;19920;-47
2021/11/20 14:07:37;;;;;;;;;;;;;;;;;;5049642;28;19913;-48
2021/11/20 14:10:09;;;;;;;;;;;;;;;;;;5045886;28;19913;-46
2021/11/20 14:12:36;;;;;;;;;;;;;;;;;;5056160;28;20392;-46
2021/11/20 14:15:02;;;;;;;;;;;;;;;;;;5054794;28;20412;-49
2021/11/20 14:17:28;;;;;;;;;;;;;;;;;;5051387;28;19920;-45
2021/11/20 14:19:54;;;;;;;;;;;;;;;;;;5049952;28;19914;-45
2021/11/20 14:22:22;;;;;;;;;;;;;;;;;;5058809;28;19982;-46
2021/11/20 14:24:48;;;;;;;;;;;;;;;;;;5058931;28;19995;-44
2021/11/20 14:27:15;;;;;;;;;;;;;;;;;;5053380;28;20051;-45
2021/11/20 14:29:41;;;;;;;;;;;;;;;;;;5054822;28;20331;-46
2021/11/20 14:32:07;;;;;;;;;;;;;;;;;;5050665;28;19912;-51
2021/11/20 14:34:33;;;;;;;;;;;;;;;;;;5053560;28;19974;-45
2021/11/20 14:36:59;;;;;;;;;;;;;;;;;;5052106;28;19917;-45
2021/11/20 14:39:25;;;;;;;;;;;;;;;;;;5055659;28;19916;-45
2021/11/20 14:41:51;;;;;;;;;;;;;;;;;;5053027;28;19916;-48
2021/11/20 14:44:17;;;;;;;;;;;;;;;;;;5045298;28;20280;-46
2021/11/20 14:46:42;;;;;;;;;;;;;;;;;;5051972;28;19916;-47
2021/11/20 14:49:08;;;;;;;;;;;;;;;;;;5058298;28;19982;-46
2021/11/20 14:51:34;;;;;;;;;;;;;;;;;;5053898;28;19916;-46
2021/11/20 14:54:01;;;;;;;;;;;;;;;;;;5051753;28;19963;-46
2021/11/20 14:56:28;;;;;;;;;;;;;;;;;;5055390;28;20355;-46
2021/11/20 14:58:54;;;;;;;;;;;;;;;;;;5048705;28;19920;-45
2021/11/20 15:01:20;;;;;;;;;;;;;;;;;;5053729;28;19991;-46
2021/11/20 15:03:45;;;;;;;;;;;;;;;;;;5051956;28;20365;-48
2021/11/20 15:06:11;;;;;;;;;;;;;;;;;;5052375;28;20538;-47
2021/11/20 15:08:37;;;;;;;;;;;;;;;;;;5049561;28;19912;-47
2021/11/20 15:11:03;;;;;;;;;;;;;;;;;;5050078;28;20319;-48
2021/11/20 15:13:30;;;;;;;;;;;;;;;;;;5052631;28;19919;-46
2021/11/20 15:15:56;;;;;;;;;;;;;;;;;;5051414;28;20010;-46
2021/11/20 15:18:22;;;;;;;;;;;;;;;;;;5051019;28;20014;-49
2021/11/20 15:20:49;;;;;;;;;;;;;;;;;;5053642;28;19971;-47
2021/11/20 15:23:17;;;;;;;;;;;;;;;;;;5050441;28;19921;-47
2021/11/20 15:25:43;;;;;;;;;;;;;;;;;;5051599;28;19916;-47
2021/11/20 15:28:08;;;;;;;;;;;;;;;;;;5049303;28;19913;-45
2021/11/20 15:30:34;;;;;;;;;;;;;;;;;;5050420;28;19952;-47
2021/11/20 15:33:02;;;;;;;;;;;;;;;;;;5053832;28;19962;-45
2021/11/20 15:35:29;;;;;;;;;;;;;;;;;;5056929;28;19923;-46
2021/11/20 15:37:55;;;;;;;;;;;;;;;;;;5050026;28;20032;-47
2021/11/20 15:40:22;;;;;;;;;;;;;;;;;;5049132;28;19942;-47
2021/11/20 15:42:49;;;;;;;;;;;;;;;;;;5050993;28;20016;-45
2021/11/20 15:45:15;;;;;;;;;;;;;;;;;;5050817;28;20311;-46
2021/11/20 15:47:41;;;;;;;;;;;;;;;;;;5058393;28;19913;-46
2021/11/20 15:50:07;;;;;;;;;;;;;;;;;;5055002;28;19956;-46
2021/11/20 15:52:32;;;;;;;;;;;;;;;;;;5049491;28;19924;-46
2021/11/20 15:54:58;;;;;;;;;;;;;;;;;;5052625;28;19921;-45
2021/11/20 15:57:24;;;;;;;;;;;;;;;;;;5059054;28;19916;-46
2021/11/20 15:59:50;;;;;;;;;;;;;;;;;;5057557;28;20254;-45
2021/11/20 16:02:16;;;;;;;;;;;;;;;;;;5064040;28;19923;-46
2021/11/20 16:04:42;;;;;;;;;;;;;;;;;;5060556;28;19917;-47
2021/11/20 16:07:08;;;;;;;;;;;;;;;;;;5051463;28;19916;-47
2021/11/20 16:09:34;;;;;;;;;;;;;;;;;;5043494;28;19952;-46
2021/11/20 16:12:00;;;;;;;;;;;;;;;;;;5043445;28;19917;-46
2021/11/20 16:14:26;;;;;;;;;;;;;;;;;;5043536;28;19920;-44
2021/11/20 16:16:52;;;;;;;;;;;;;;;;;;5045953;28;19919;-46
2021/11/20 16:19:21;;;;;;;;;;;;;;;;;;5047338;28;19955;-48
2021/11/20 16:21:48;;;;;;;;;;;;;;;;;;5046595;28;19961;-46
2021/11/20 16:24:14;;;;;;;;;;;;;;;;;;5061956;28;20390;-45
2021/11/20 16:26:40;;;;;;;;;;;;;;;;;;5059492;28;19921;-47
2021/11/20 16:29:06;;;;;;;;;;;;;;;;;;5053392;28;19913;-45
2021/11/20 16:31:32;;;;;;;;;;;;;;;;;;5064260;28;19927;-46
2021/11/20 16:33:59;;;;;;;;;;;;;;;;;;5047047;28;19919;-45
2021/11/20 16:36:25;;;;;;;;;;;;;;;;;;5047946;28;20422;-49
2021/11/20 16:38:51;;;;;;;;;;;;;;;;;;5046877;28;19917;-47
2021/11/20 16:41:17;;;;;;;;;;;;;;;;;;5046952;28;19916;-46